Time,TemperatureF,DewpointF,PressureIn,WindDirection,WindDirectionDegrees,WindSpeedMPH,WindSpeedGustMPH,Humidity,HourlyPrecipIn,Conditions,Clouds,dailyrainin,SoftwareType,DateUTC
2013-06-17 00:02:00,69.0,64.0,-100.00,SW,225,1.0,3.0,83,0.00,,,-99.99,,2013-06-17 04:02:00,
2013-06-17 00:12:00,70.0,64.0,-100.00,WNW,295,2.0,5.0,81,0.00,,,-99.99,,2013-06-17 04:12:00,
2013-06-17 00:22:00,69.0,64.0,-100.00,WNW,290,1.0,6.0,82,0.00,,,-99.99,,2013-06-17 04:22:00,
2013-06-17 00:34:00,69.0,64.0,-100.00,WSW,245,1.0,4.0,81,0.00,,,-99.99,,2013-06-17 04:34:00,
2013-06-17 00:43:00,68.0,64.0,-100.00,SW,235,0.0,4.0,84,0.00,,,-99.99,,2013-06-17 04:43:00,
2013-06-17 00:53:00,68.0,63.0,-100.00,West,265,1.0,5.0,85,0.00,,,-99.99,,2013-06-17 04:53:00,
2013-06-17 01:02:00,68.0,63.0,-100.00,West,275,1.0,3.0,85,0.00,,,-99.99,,2013-06-17 05:02:00,
2013-06-17 01:12:00,67.0,63.0,-100.00,WSW,255,1.0,3.0,85,0.00,,,-99.99,,2013-06-17 05:12:00,
2013-06-17 01:22:00,67.0,63.0,-100.00,WSW,245,0.0,2.0,86,0.00,,,-99.99,,2013-06-17 05:22:00,
2013-06-17 01:33:00,67.0,63.0,-100.00,WSW,255,1.0,4.0,86,0.00,,,-99.99,,2013-06-17 05:33:00,
2013-06-17 01:44:00,67.0,63.0,-100.00,West,265,1.0,3.0,86,0.00,,,-99.99,,2013-06-17 05:44:00,
2013-06-17 01:53:00,66.0,62.0,-100.00,WSW,250,0.0,1.0,87,0.00,,,-99.99,,2013-06-17 05:53:00,
2013-06-17 02:02:00,65.0,62.0,-100.00,West,265,0.0,2.0,88,0.00,,,-99.99,,2013-06-17 06:02:00,
2013-06-17 02:12:00,65.0,62.0,-100.00,WSW,250,0.0,3.0,87,0.00,,,-99.99,,2013-06-17 06:12:00,
2013-06-17 02:22:00,65.0,62.0,-100.00,SSW,210,0.0,2.0,88,0.00,,,-99.99,,2013-06-17 06:22:00,
2013-06-17 02:33:00,64.0,61.0,-100.00,SSW,200,0.0,3.0,88,0.00,,,-99.99,,2013-06-17 06:33:00,
2013-06-17 02:43:00,65.0,61.0,-100.00,SW,220,0.0,2.0,87,0.00,,,-99.99,,2013-06-17 06:43:00,
2013-06-17 02:53:00,64.0,60.0,-100.00,SW,225,0.0,1.0,86,0.00,,,-99.99,,2013-06-17 06:53:00,
2013-06-17 03:02:00,64.0,60.0,-100.00,WSW,240,1.0,2.0,86,0.00,,,-99.99,,2013-06-17 07:02:00,
2013-06-17 03:12:00,64.0,60.0,-100.00,SSE,165,0.0,2.0,86,0.00,,,-99.99,,2013-06-17 07:12:00,
2013-06-17 03:22:00,63.0,59.0,-100.00,West,275,0.0,2.0,87,0.00,,,-99.99,,2013-06-17 07:22:00,
2013-06-17 03:33:00,63.0,59.0,-100.00,South,170,0.0,2.0,86,0.00,,,-99.99,,2013-06-17 07:33:00,
2013-06-17 03:43:00,63.0,58.0,-100.00,SW,220,0.0,2.0,85,0.00,,,-99.99,,2013-06-17 07:43:00,
2013-06-17 03:53:00,62.0,58.0,-100.00,SSW,195,0.0,4.0,85,0.00,,,-99.99,,2013-06-17 07:53:00,
2013-06-17 04:02:00,62.0,58.0,-100.00,SSW,210,1.0,3.0,85,0.00,,,-99.99,,2013-06-17 08:02:00,
2013-06-17 04:12:00,62.0,58.0,-100.00,SSW,200,1.0,3.0,84,0.00,,,-99.99,,2013-06-17 08:12:00,
2013-06-17 04:22:00,62.0,57.0,-100.00,SSW,200,1.0,3.0,84,0.00,,,-99.99,,2013-06-17 08:22:00,
2013-06-17 04:34:00,62.0,57.0,-100.00,SSW,200,1.0,3.0,84,0.00,,,-99.99,,2013-06-17 08:34:00,
2013-06-17 04:43:00,62.0,57.0,-100.00,SSW,200,1.0,3.0,84,0.00,,,-99.99,,2013-06-17 08:43:00,
2013-06-17 04:53:00,62.0,57.0,-100.00,SSW,200,1.0,3.0,84,0.00,,,-99.99,,2013-06-17 08:53:00,
2013-06-17 05:02:00,62.0,57.0,-100.00,SSW,200,1.0,3.0,84,0.00,,,-99.99,,2013-06-17 09:02:00,
2013-06-17 13:12:00,79.0,58.0,-100.00,WNW,290,4.0,-999.0,49,0.00,,,-99.99,,2013-06-17 17:12:00,
2013-06-17 13:22:00,78.0,56.0,-100.00,West,270,4.0,10.0,46,0.00,,,-99.99,,2013-06-17 17:22:00,
2013-06-17 13:33:00,80.0,59.0,-100.00,NW,305,5.0,12.0,49,0.00,,,-99.99,,2013-06-17 17:33:00,
2013-06-17 13:43:00,80.0,61.0,-100.00,WNW,295,6.0,12.0,53,0.00,,,-99.99,,2013-06-17 17:43:00,
2013-06-17 13:52:00,80.0,61.0,-100.00,WNW,295,6.0,12.0,53,0.00,,,-99.99,,2013-06-17 17:52:00,
2013-06-17 14:02:00,78.0,62.0,-100.00,West,275,11.0,18.0,58,0.00,,,-99.99,,2013-06-17 18:02:00,
2013-06-17 14:12:00,80.0,63.0,-100.00,West,270,5.0,10.0,55,0.00,,,-99.99,,2013-06-17 18:12:00,
2013-06-17 14:23:00,79.0,63.0,-100.00,West,270,5.0,13.0,58,0.00,,,-99.99,,2013-06-17 18:23:00,
2013-06-17 14:33:00,79.0,64.0,-100.00,WNW,285,3.0,15.0,59,0.00,,,-99.99,,2013-06-17 18:33:00,
2013-06-17 14:43:00,79.0,64.0,-100.00,West,265,2.0,8.0,59,0.00,,,-99.99,,2013-06-17 18:43:00,
2013-06-17 14:53:00,79.0,64.0,-100.00,West,265,2.0,8.0,59,0.00,,,-99.99,,2013-06-17 18:53:00,
2013-06-17 15:02:00,79.0,64.0,-100.00,West,280,3.0,6.0,60,0.00,,,-99.99,,2013-06-17 19:02:00,
2013-06-17 15:12:00,79.0,64.0,-100.00,WNW,285,4.0,12.0,59,0.00,,,-99.99,,2013-06-17 19:12:00,
2013-06-17 15:22:00,80.0,65.0,-100.00,WNW,285,4.0,12.0,59,0.00,,,-99.99,,2013-06-17 19:22:00,
2013-06-17 15:33:00,80.0,64.0,-100.00,West,265,3.0,9.0,58,0.00,,,-99.99,,2013-06-17 19:33:00,
2013-06-17 15:43:00,80.0,64.0,-100.00,West,275,2.0,9.0,57,0.00,,,-99.99,,2013-06-17 19:43:00,
2013-06-17 15:53:00,80.0,64.0,-100.00,West,275,2.0,9.0,57,0.00,,,-99.99,,2013-06-17 19:53:00,
2013-06-17 16:02:00,81.0,63.0,-100.00,SSE,155,2.0,7.0,54,0.00,,,-99.99,,2013-06-17 20:02:00,
2013-06-17 16:11:00,80.0,61.0,-100.00,West,270,9.0,15.0,52,0.00,,,-99.99,,2013-06-17 20:11:00,
2013-06-17 16:22:00,81.0,62.0,-100.00,West,275,7.0,12.0,52,0.00,,,-99.99,,2013-06-17 20:22:00,
2013-06-17 16:34:00,81.0,64.0,-100.00,WSW,245,2.0,12.0,55,0.00,,,-99.99,,2013-06-17 20:34:00,
2013-06-17 16:43:00,82.0,65.0,-100.00,WNW,285,2.0,6.0,56,0.00,,,-99.99,,2013-06-17 20:43:00,
2013-06-17 16:52:00,82.0,65.0,-100.00,WNW,285,2.0,6.0,56,0.00,,,-99.99,,2013-06-17 20:52:00,
2013-06-17 17:01:00,82.0,62.0,-100.00,West,260,4.0,10.0,51,0.00,,,-99.99,,2013-06-17 21:01:00,
2013-06-17 17:12:00,82.0,64.0,-100.00,North,0,1.0,8.0,53,0.00,,,-99.99,,2013-06-17 21:12:00,
2013-06-17 17:22:00,82.0,64.0,-100.00,NW,325,1.0,6.0,53,0.00,,,-99.99,,2013-06-17 21:22:00,
2013-06-17 17:33:00,82.0,63.0,-100.00,WSW,245,3.0,6.0,53,0.00,,,-99.99,,2013-06-17 21:33:00,
2013-06-17 17:43:00,80.0,62.0,-100.00,West,275,4.0,7.0,52,0.00,,,-99.99,,2013-06-17 21:43:00,
2013-06-17 17:52:00,82.0,60.0,-100.00,WSW,255,4.0,9.0,48,0.00,,,-99.99,,2013-06-17 21:52:00,
2013-06-17 18:01:00,81.0,59.0,-100.00,WSW,250,4.0,6.0,47,0.00,,,-99.99,,2013-06-17 22:01:00,
2013-06-17 18:11:00,81.0,59.0,-100.00,WSW,250,4.0,6.0,47,0.00,,,-99.99,,2013-06-17 22:11:00,
2013-06-17 18:22:00,81.0,59.0,-100.00,SW,235,2.0,6.0,47,0.00,,,-99.99,,2013-06-17 22:22:00,
2013-06-17 18:34:00,80.0,60.0,-100.00,WSW,245,3.0,6.0,50,0.00,,,-99.99,,2013-06-17 22:34:00,
2013-06-17 18:43:00,80.0,61.0,-100.00,WSW,245,2.0,6.0,52,0.00,,,-99.99,,2013-06-17 22:43:00,
2013-06-17 18:53:00,80.0,60.0,-100.00,WSW,250,3.0,6.0,50,0.00,,,-99.99,,2013-06-17 22:53:00,
2013-06-17 19:02:00,79.0,61.0,-100.00,WSW,240,3.0,6.0,53,0.00,,,-99.99,,2013-06-17 23:02:00,
2013-06-17 19:11:00,78.0,60.0,-100.00,West,260,2.0,7.0,52,0.00,,,-99.99,,2013-06-17 23:11:00,
2013-06-17 19:22:00,78.0,60.0,-100.00,WSW,255,3.0,6.0,54,0.00,,,-99.99,,2013-06-17 23:22:00,
2013-06-17 19:32:00,77.0,60.0,-100.00,WSW,240,1.0,4.0,56,0.00,,,-99.99,,2013-06-17 23:32:00,
2013-06-17 19:42:00,76.0,62.0,-100.00,SW,235,1.0,4.0,60,0.00,,,-99.99,,2013-06-17 23:42:00,
2013-06-17 19:53:00,76.0,62.0,-100.00,SW,235,1.0,4.0,60,0.00,,,-99.99,,2013-06-17 23:53:00,
2013-06-17 20:01:00,76.0,63.0,-100.00,NE,40,1.0,4.0,65,0.00,,,-99.99,,2013-06-18 00:01:00,
2013-06-17 20:12:00,75.0,64.0,-100.00,NNE,15,1.0,4.0,69,0.00,,,-99.99,,2013-06-18 00:12:00,
2013-06-17 20:22:00,75.0,64.0,-100.00,NNE,15,1.0,4.0,69,0.00,,,-99.99,,2013-06-18 00:22:00,
2013-06-17 20:33:00,65.0,60.0,-100.00,NNE,20,4.0,16.0,84,1.10,,,-99.99,,2013-06-18 00:33:00,
2013-06-17 20:43:00,64.0,60.0,-100.00,ENE,60,4.0,10.0,87,0.55,,,-99.99,,2013-06-18 00:43:00,
2013-06-17 20:52:00,64.0,60.0,-100.00,NNE,30,3.0,13.0,87,0.55,,,-99.99,,2013-06-18 00:52:00,
2013-06-17 21:34:00,64.0,60.0,-100.00,WSW,245,1.0,5.0,88,0.00,,,-99.99,,2013-06-18 01:34:00,
2013-06-17 21:44:00,64.0,60.0,-100.00,SE,125,1.0,5.0,89,0.00,,,-99.99,,2013-06-18 01:44:00,
2013-06-17 21:53:00,64.0,60.0,-100.00,SE,125,1.0,5.0,89,0.00,,,-99.99,,2013-06-18 01:53:00,
2013-06-17 22:02:00,64.0,60.0,-100.00,SSW,205,2.0,4.0,89,0.00,,,-99.99,,2013-06-18 02:02:00,
2013-06-17 22:11:00,64.0,60.0,-100.00,South,170,3.0,11.0,87,0.00,,,-99.99,,2013-06-18 02:11:00,
2013-06-17 22:22:00,64.0,60.0,-100.00,SSW,195,2.0,7.0,87,0.00,,,-99.99,,2013-06-18 02:22:00,
2013-06-17 22:34:00,64.0,59.0,-100.00,South,185,4.0,9.0,86,0.00,,,-99.99,,2013-06-18 02:34:00,
2013-06-17 22:43:00,64.0,59.0,-100.00,South,175,2.0,9.0,85,0.00,,,-99.99,,2013-06-18 02:43:00,
2013-06-17 22:53:00,63.0,59.0,-100.00,South,190,2.0,6.0,86,0.00,,,-99.99,,2013-06-18 02:53:00,
2013-06-17 23:02:00,63.0,59.0,-100.00,South,180,1.0,3.0,87,0.00,,,-99.99,,2013-06-18 03:02:00,
2013-06-17 23:12:00,63.0,59.0,-100.00,SSW,200,2.0,6.0,87,0.00,,,-99.99,,2013-06-18 03:12:00,
2013-06-17 23:23:00,64.0,59.0,-100.00,West,260,1.0,6.0,86,0.00,,,-99.99,,2013-06-18 03:23:00,
2013-06-17 23:34:00,64.0,59.0,-100.00,West,260,2.0,9.0,85,0.00,,,-99.99,,2013-06-18 03:34:00,
2013-06-17 23:43:00,64.0,58.0,-100.00,WSW,245,5.0,11.0,83,1.10,,,-99.99,,2013-06-18 03:43:00,
2013-06-17 23:53:00,61.0,57.0,-100.00,NNE,30,6.0,18.0,88,8.50,,,-99.99,,2013-06-18 03:53:00,